TimeEDT,TemperatureF,Dew PointF,Humidity,Sea Level PressureIn,VisibilityMPH,Wind Direction,Wind SpeedMPH,Gust SpeedMPH,PrecipitationIn,Events,Conditions,WindDirDegrees,DateUTC
12:15 AM,59.9,59.9,100,29.88,1.5,Calm,Calm,-,N/A,Rain,Rain,0,2012-10-02 04:15:00
12:35 AM,59.9,59.9,100,29.88,1.8,Calm,Calm,-,0.01,,Light Drizzle,0,2012-10-02 04:35:00
12:55 AM,59.9,59.9,100,29.88,1.5,Calm,Calm,-,0.01,,Drizzle,0,2012-10-02 04:55:00
1:15 AM,60.1,60.1,100,29.88,1.5,Calm,Calm,-,N/A,,Light Drizzle,0,2012-10-02 05:15:00
1:35 AM,60.1,60.1,100,29.89,1.5,Calm,Calm,-,N/A,,Light Drizzle,0,2012-10-02 05:35:00
1:55 AM,60.3,60.3,100,29.88,1.5,Calm,Calm,-,N/A,,Light Drizzle,0,2012-10-02 05:55:00
2:15 AM,60.4,60.4,100,29.88,1.5,Calm,Calm,-,N/A,,Light Drizzle,0,2012-10-02 06:15:00
2:55 AM,60.8,60.8,100,29.86,1.5,Calm,Calm,-,0.01,,Light Drizzle,0,2012-10-02 06:55:00
3:15 AM,60.8,60.8,100,29.86,1.2,Calm,Calm,-,N/A,,Overcast,0,2012-10-02 07:15:00
3:35 AM,60.8,60.8,100,29.86,1.2,Calm,Calm,-,N/A,,Overcast,0,2012-10-02 07:35:00
4:15 AM,61.2,61.2,100,29.84,1.2,Calm,Calm,-,N/A,Rain,Rain,0,2012-10-02 08:15:00
4:35 AM,61.2,61.2,100,29.85,1.8,Calm,Calm,-,0.02,Rain,Light Rain,0,2012-10-02 08:35:00
4:55 AM,61.2,61.2,100,29.84,3.0,Calm,Calm,-,0.11,Rain,Light Rain,0,2012-10-02 08:55:00
5:15 AM,61.3,61.3,100,29.84,4.0,NNE,3.5,-,0.01,,Light Drizzle,30,2012-10-02 09:15:00
5:35 AM,61.3,61.3,100,29.84,3.0,Calm,Calm,-,0.03,Rain,Rain,0,2012-10-02 09:35:00
5:55 AM,61.7,61.7,100,29.84,4.0,Calm,Calm,-,0.04,,Overcast,0,2012-10-02 09:55:00
6:35 AM,61.7,61.7,100,29.86,5.0,Calm,Calm,-,0.09,Rain,Light Rain,0,2012-10-02 10:35:00
6:55 AM,61.7,61.7,100,29.86,7.0,Calm,Calm,-,0.10,,Light Drizzle,0,2012-10-02 10:55:00
7:15 AM,61.7,61.7,100,29.85,3.0,Calm,Calm,-,N/A,,Overcast,0,2012-10-02 11:15:00
7:35 AM,61.7,61.7,100,29.86,3.0,NNE,3.5,-,N/A,,Overcast,30,2012-10-02 11:35:00
7:55 AM,61.7,61.7,100,29.86,1.5,Calm,Calm,-,N/A,,Overcast,0,2012-10-02 11:55:00
8:15 AM,61.7,61.7,100,29.87,1.2,Calm,Calm,-,N/A,,Overcast,0,2012-10-02 12:15:00
8:35 AM,61.7,61.7,100,29.88,1.5,Calm,Calm,-,0.04,Rain,Heavy Rain,0,2012-10-02 12:35:00
8:55 AM,61.7,61.7,100,29.87,0.5,NNE,3.5,-,0.42,Rain,Light Rain,30,2012-10-02 12:55:00
9:15 AM,62.1,62.1,100,29.87,10.0,Calm,Calm,-,N/A,Rain,Light Rain,0,2012-10-02 13:15:00
9:35 AM,62.4,62.4,100,29.88,10.0,Calm,Calm,-,N/A,Rain,Light Rain,0,2012-10-02 13:35:00
9:55 AM,62.6,62.6,100,29.88,10.0,Calm,Calm,-,0.01,,Overcast,0,2012-10-02 13:55:00
10:15 AM,63.0,63.0,100,29.88,10.0,Calm,Calm,-,N/A,,Overcast,0,2012-10-02 14:15:00
10:35 AM,63.3,63.1,99,29.88,10.0,Calm,Calm,-,N/A,,Overcast,0,2012-10-02 14:35:00
10:55 AM,63.7,63.5,99,29.89,7.0,North,3.5,-,N/A,,Overcast,10,2012-10-02 14:55:00
11:15 AM,63.9,63.7,99,29.89,10.0,Calm,Calm,-,N/A,,Overcast,0,2012-10-02 15:15:00
11:35 AM,63.9,63.7,99,29.90,5.0,NNW,3.5,-,N/A,,Overcast,340,2012-10-02 15:35:00
11:55 AM,64.0,63.7,99,29.90,7.0,Calm,Calm,-,N/A,,Overcast,0,2012-10-02 15:55:00
12:15 PM,64.9,64.4,98,29.90,10.0,Calm,Calm,-,N/A,,Overcast,0,2012-10-02 16:15:00
12:35 PM,65.7,64.9,98,29.89,10.0,Calm,Calm,-,N/A,,Overcast,0,2012-10-02 16:35:00
12:55 PM,66.6,65.5,96,29.87,10.0,Calm,Calm,-,N/A,,Overcast,0,2012-10-02 16:55:00
1:15 PM,68.0,66.0,93,29.87,10.0,Calm,Calm,-,N/A,,Overcast,0,2012-10-02 17:15:00
1:35 PM,69.3,66.6,91,29.87,10.0,Calm,Calm,-,N/A,,Overcast,0,2012-10-02 17:35:00
1:55 PM,70.0,66.7,89,29.87,10.0,Calm,Calm,-,N/A,,Overcast,0,2012-10-02 17:55:00
2:15 PM,70.7,67.5,89,29.87,10.0,Calm,Calm,-,N/A,,Overcast,0,2012-10-02 18:15:00
2:35 PM,70.5,67.5,90,29.87,10.0,Calm,Calm,-,N/A,Rain,Light Rain,0,2012-10-02 18:35:00
2:55 PM,70.5,67.5,90,29.87,10.0,Calm,Calm,-,N/A,,Overcast,0,2012-10-02 18:55:00
3:15 PM,71.4,68.0,89,29.86,10.0,Calm,Calm,-,N/A,,Overcast,0,2012-10-02 19:15:00
3:35 PM,73.0,68.5,86,29.87,10.0,Calm,Calm,-,N/A,,Overcast,0,2012-10-02 19:35:00
3:55 PM,74.3,69.3,84,29.86,10.0,Calm,Calm,-,N/A,,Mostly Cloudy,0,2012-10-02 19:55:00
4:15 PM,75.2,70.0,84,29.87,10.0,Calm,Calm,-,N/A,,Scattered Clouds,0,2012-10-02 20:15:00
4:35 PM,76.1,70.2,82,29.86,10.0,Calm,Calm,-,N/A,,Scattered Clouds,0,2012-10-02 20:35:00
4:55 PM,77.0,70.5,80,29.86,10.0,Calm,Calm,-,N/A,,Clear,0,2012-10-02 20:55:00
5:15 PM,77.2,70.9,81,29.87,10.0,Calm,Calm,-,N/A,,Mostly Cloudy,0,2012-10-02 21:15:00
5:35 PM,76.3,71.4,85,29.87,10.0,Calm,Calm,-,N/A,,Mostly Cloudy,0,2012-10-02 21:35:00
5:55 PM,75.9,71.6,86,29.87,10.0,Calm,Calm,-,N/A,,Scattered Clouds,0,2012-10-02 21:55:00
6:15 PM,75.4,71.8,89,29.88,10.0,Calm,Calm,-,N/A,,Mostly Cloudy,0,2012-10-02 22:15:00
6:35 PM,74.8,72.1,91,29.89,7.0,Calm,Calm,-,N/A,,Scattered Clouds,0,2012-10-02 22:35:00
6:55 PM,73.6,71.8,94,29.89,5.0,Calm,Calm,-,N/A,,Mostly Cloudy,0,2012-10-02 22:55:00
7:15 PM,73.2,71.8,95,29.90,10.0,Calm,Calm,-,N/A,,Mostly Cloudy,0,2012-10-02 23:15:00
7:35 PM,72.9,71.4,95,29.90,7.0,Calm,Calm,-,N/A,,Overcast,0,2012-10-02 23:35:00
8:15 PM,72.1,71.1,96,29.92,10.0,Calm,Calm,-,N/A,,Overcast,0,2012-10-03 00:15:00
8:35 PM,72.1,70.9,96,29.92,7.0,Calm,Calm,-,N/A,,Overcast,0,2012-10-03 00:35:00
8:55 PM,72.0,70.9,96,29.94,7.0,Calm,Calm,-,N/A,,Overcast,0,2012-10-03 00:55:00
9:15 PM,72.0,70.9,96,29.94,10.0,Calm,Calm,-,N/A,,Overcast,0,2012-10-03 01:15:00
9:35 PM,71.6,70.5,96,29.95,10.0,Calm,Calm,-,N/A,,Mostly Cloudy,0,2012-10-03 01:35:00
9:55 PM,71.2,70.0,96,29.95,7.0,Calm,Calm,-,N/A,Rain,Light Rain,0,2012-10-03 01:55:00
10:15 PM,70.7,69.4,96,29.96,4.0,Calm,Calm,-,N/A,,Scattered Clouds,0,2012-10-03 02:15:00
10:35 PM,69.6,68.7,97,29.96,1.2,Calm,Calm,-,N/A,,Scattered Clouds,0,2012-10-03 02:35:00
10:55 PM,68.2,67.5,98,29.96,0.8,Calm,Calm,-,N/A,,Mostly Cloudy,0,2012-10-03 02:55:00
11:15 PM,68.4,67.8,98,29.97,2.5,Calm,Calm,-,N/A,,Scattered Clouds,0,2012-10-03 03:15:00
11:35 PM,67.8,67.5,99,29.97,4.0,Calm,Calm,-,N/A,,Scattered Clouds,0,2012-10-03 03:35:00
11:55 PM,67.3,67.1,99,29.97,2.5,Calm,Calm,-,N/A,,Scattered Clouds,0,2012-10-03 03:55:00